sensor_id;sensor_type;location;lat;lon;timestamp;P1;durP1;ratioP1;P2;durP2;ratioP2
1467;SDS011;727;48.892;9.544;2022-10-16T00:02:18;7.10;;;2.93;;
1467;SDS011;727;48.892;9.544;2022-10-16T00:04:45;4.80;;;3.00;;
1467;SDS011;727;48.892;9.544;2022-10-16T00:07:12;6.63;;;3.57;;
1467;SDS011;727;48.892;9.544;2022-10-16T00:09:38;8.93;;;4.17;;
1467;SDS011;727;48.892;9.544;2022-10-16T00:12:05;10.80;;;6.40;;
1467;SDS011;727;48.892;9.544;2022-10-16T00:14:32;14.27;;;9.57;;
1467;SDS011;727;48.892;9.544;2022-10-16T00:17:00;15.23;;;10.37;;
1467;SDS011;727;48.892;9.544;2022-10-16T00:19:27;16.23;;;12.50;;
1467;SDS011;727;48.892;9.544;2022-10-16T00:21:55;18.77;;;10.90;;
1467;SDS011;727;48.892;9.544;2022-10-16T00:24:21;10.37;;;8.23;;
1467;SDS011;727;48.892;9.544;2022-10-16T00:26:49;10.77;;;7.47;;
1467;SDS011;727;48.892;9.544;2022-10-16T00:29:16;13.03;;;7.90;;
1467;SDS011;727;48.892;9.544;2022-10-16T00:31:43;12.20;;;6.90;;
1467;SDS011;727;48.892;9.544;2022-10-16T00:34:11;8.70;;;6.93;;
1467;SDS011;727;48.892;9.544;2022-10-16T00:36:38;10.70;;;6.10;;
1467;SDS011;727;48.892;9.544;2022-10-16T00:39:05;15.77;;;4.53;;
1467;SDS011;727;48.892;9.544;2022-10-16T00:41:32;3.67;;;3.37;;
1467;SDS011;727;48.892;9.544;2022-10-16T00:44:00;7.23;;;3.53;;
1467;SDS011;727;48.892;9.544;2022-10-16T00:46:28;3.63;;;3.27;;
1467;SDS011;727;48.892;9.544;2022-10-16T00:48:59;6.73;;;2.80;;
1467;SDS011;727;48.892;9.544;2022-10-16T00:51:31;3.00;;;1.80;;
1467;SDS011;727;48.892;9.544;2022-10-16T00:54:00;10.07;;;4.40;;
1467;SDS011;727;48.892;9.544;2022-10-16T00:56:28;7.30;;;2.53;;
1467;SDS011;727;48.892;9.544;2022-10-16T00:58:55;4.00;;;2.80;;
1467;SDS011;727;48.892;9.544;2022-10-16T01:01:21;11.73;;;3.63;;
1467;SDS011;727;48.892;9.544;2022-10-16T01:03:48;5.10;;;3.53;;
1467;SDS011;727;48.892;9.544;2022-10-16T01:06:19;7.43;;;3.00;;
1467;SDS011;727;48.892;9.544;2022-10-16T01:09:00;2.90;;;2.53;;
1467;SDS011;727;48.892;9.544;2022-10-16T01:11:37;6.07;;;2.93;;
1467;SDS011;727;48.892;9.544;2022-10-16T01:14:11;3.90;;;2.80;;
1467;SDS011;727;48.892;9.544;2022-10-16T01:16:46;3.57;;;2.80;;
1467;SDS011;727;48.892;9.544;2022-10-16T01:19:20;9.80;;;3.53;;
1467;SDS011;727;48.892;9.544;2022-10-16T01:22:02;6.40;;;2.50;;
1467;SDS011;727;48.892;9.544;2022-10-16T01:24:33;3.73;;;2.93;;
1467;SDS011;727;48.892;9.544;2022-10-16T01:27:08;5.73;;;2.83;;
1467;SDS011;727;48.892;9.544;2022-10-16T01:29:37;4.57;;;2.60;;
1467;SDS011;727;48.892;9.544;2022-10-16T01:32:15;16.90;;;4.40;;
1467;SDS011;727;48.892;9.544;2022-10-16T01:34:47;12.17;;;2.70;;
1467;SDS011;727;48.892;9.544;2022-10-16T01:37:20;5.70;;;2.50;;
1467;SDS011;727;48.892;9.544;2022-10-16T01:39:53;5.53;;;2.30;;
1467;SDS011;727;48.892;9.544;2022-10-16T01:42:26;4.20;;;2.50;;
1467;SDS011;727;48.892;9.544;2022-10-16T01:44:57;5.90;;;2.57;;
1467;SDS011;727;48.892;9.544;2022-10-16T01:47:25;9.37;;;2.97;;
1467;SDS011;727;48.892;9.544;2022-10-16T01:49:53;4.30;;;3.10;;
1467;SDS011;727;48.892;9.544;2022-10-16T01:52:22;10.73;;;2.87;;
1467;SDS011;727;48.892;9.544;2022-10-16T01:54:52;5.73;;;2.83;;
1467;SDS011;727;48.892;9.544;2022-10-16T01:57:21;10.27;;;3.30;;
1467;SDS011;727;48.892;9.544;2022-10-16T01:59:53;11.30;;;3.10;;
1467;SDS011;727;48.892;9.544;2022-10-16T02:02:22;5.60;;;3.27;;
1467;SDS011;727;48.892;9.544;2022-10-16T02:04:53;3.93;;;2.60;;
1467;SDS011;727;48.892;9.544;2022-10-16T02:07:24;9.30;;;3.67;;
1467;SDS011;727;48.892;9.544;2022-10-16T02:09:51;11.60;;;2.20;;
1467;SDS011;727;48.892;9.544;2022-10-16T02:12:19;5.80;;;1.90;;
1467;SDS011;727;48.892;9.544;2022-10-16T02:14:51;4.17;;;2.50;;
1467;SDS011;727;48.892;9.544;2022-10-16T02:17:20;10.70;;;3.23;;
1467;SDS011;727;48.892;9.544;2022-10-16T02:19:48;12.03;;;3.37;;
1467;SDS011;727;48.892;9.544;2022-10-16T02:22:18;5.67;;;3.23;;
1467;SDS011;727;48.892;9.544;2022-10-16T02:24:51;4.03;;;3.20;;
1467;SDS011;727;48.892;9.544;2022-10-16T02:27:24;7.23;;;2.80;;
1467;SDS011;727;48.892;9.544;2022-10-16T02:29:55;9.93;;;3.43;;
1467;SDS011;727;48.892;9.544;2022-10-16T02:32:28;7.83;;;2.57;;
1467;SDS011;727;48.892;9.544;2022-10-16T02:34:58;8.83;;;3.00;;
1467;SDS011;727;48.892;9.544;2022-10-16T02:37:26;6.80;;;2.70;;
1467;SDS011;727;48.892;9.544;2022-10-16T02:39:54;3.47;;;2.53;;
1467;SDS011;727;48.892;9.544;2022-10-16T02:42:26;5.57;;;2.33;;
1467;SDS011;727;48.892;9.544;2022-10-16T02:44:56;6.90;;;2.87;;
1467;SDS011;727;48.892;9.544;2022-10-16T02:47:22;6.00;;;2.37;;
1467;SDS011;727;48.892;9.544;2022-10-16T02:49:49;2.60;;;2.40;;
1467;SDS011;727;48.892;9.544;2022-10-16T02:52:16;3.80;;;3.50;;
1467;SDS011;727;48.892;9.544;2022-10-16T02:54:42;4.67;;;2.93;;
1467;SDS011;727;48.892;9.544;2022-10-16T02:57:09;12.83;;;2.60;;
1467;SDS011;727;48.892;9.544;2022-10-16T02:59:36;4.03;;;3.50;;
1467;SDS011;727;48.892;9.544;2022-10-16T03:02:05;8.17;;;2.90;;
1467;SDS011;727;48.892;9.544;2022-10-16T03:04:31;4.20;;;3.30;;
1467;SDS011;727;48.892;9.544;2022-10-16T03:06:58;6.30;;;2.93;;
1467;SDS011;727;48.892;9.544;2022-10-16T03:09:25;3.63;;;2.70;;
1467;SDS011;727;48.892;9.544;2022-10-16T03:11:52;10.20;;;2.67;;
1467;SDS011;727;48.892;9.544;2022-10-16T03:14:18;2.50;;;2.30;;
1467;SDS011;727;48.892;9.544;2022-10-16T03:16:45;7.47;;;2.60;;
1467;SDS011;727;48.892;9.544;2022-10-16T03:19:13;10.87;;;3.30;;
1467;SDS011;727;48.892;9.544;2022-10-16T03:21:41;6.20;;;3.30;;
1467;SDS011;727;48.892;9.544;2022-10-16T03:24:08;3.97;;;2.60;;
1467;SDS011;727;48.892;9.544;2022-10-16T03:26:35;7.50;;;2.13;;
1467;SDS011;727;48.892;9.544;2022-10-16T03:29:02;7.13;;;2.43;;
1467;SDS011;727;48.892;9.544;2022-10-16T03:31:29;4.53;;;2.40;;
1467;SDS011;727;48.892;9.544;2022-10-16T03:33:56;5.93;;;2.70;;
1467;SDS011;727;48.892;9.544;2022-10-16T03:36:24;5.83;;;2.83;;
1467;SDS011;727;48.892;9.544;2022-10-16T03:38:51;2.83;;;2.17;;
1467;SDS011;727;48.892;9.544;2022-10-16T03:41:17;6.90;;;2.30;;
1467;SDS011;727;48.892;9.544;2022-10-16T03:43:44;2.20;;;2.10;;
1467;SDS011;727;48.892;9.544;2022-10-16T03:46:11;2.20;;;2.00;;
1467;SDS011;727;48.892;9.544;2022-10-16T03:48:37;5.93;;;2.73;;
1467;SDS011;727;48.892;9.544;2022-10-16T03:51:05;6.20;;;2.30;;
1467;SDS011;727;48.892;9.544;2022-10-16T03:53:33;18.43;;;2.37;;
1467;SDS011;727;48.892;9.544;2022-10-16T03:56:00;6.80;;;2.40;;
1467;SDS011;727;48.892;9.544;2022-10-16T03:58:26;6.07;;;2.47;;
1467;SDS011;727;48.892;9.544;2022-10-16T04:00:53;6.90;;;2.70;;
1467;SDS011;727;48.892;9.544;2022-10-16T04:03:20;6.00;;;2.47;;
1467;SDS011;727;48.892;9.544;2022-10-16T04:05:47;4.20;;;2.60;;
1467;SDS011;727;48.892;9.544;2022-10-16T04:08:14;5.93;;;2.90;;
1467;SDS011;727;48.892;9.544;2022-10-16T04:10:43;9.63;;;2.47;;
1467;SDS011;727;48.892;9.544;2022-10-16T04:13:10;5.03;;;1.90;;
1467;SDS011;727;48.892;9.544;2022-10-16T04:15:37;3.30;;;1.90;;
1467;SDS011;727;48.892;9.544;2022-10-16T04:18:04;6.40;;;1.87;;
1467;SDS011;727;48.892;9.544;2022-10-16T04:20:31;5.83;;;2.33;;
1467;SDS011;727;48.892;9.544;2022-10-16T04:22:58;6.63;;;1.90;;
1467;SDS011;727;48.892;9.544;2022-10-16T04:25:24;5.60;;;2.00;;
1467;SDS011;727;48.892;9.544;2022-10-16T04:27:53;2.23;;;2.00;;
1467;SDS011;727;48.892;9.544;2022-10-16T04:30:20;5.30;;;3.17;;
1467;SDS011;727;48.892;9.544;2022-10-16T04:32:48;2.07;;;1.90;;
1467;SDS011;727;48.892;9.544;2022-10-16T04:35:15;8.90;;;2.87;;
1467;SDS011;727;48.892;9.544;2022-10-16T04:37:41;15.93;;;3.13;;
1467;SDS011;727;48.892;9.544;2022-10-16T04:40:08;9.70;;;2.00;;
1467;SDS011;727;48.892;9.544;2022-10-16T04:42:35;9.23;;;2.10;;
1467;SDS011;727;48.892;9.544;2022-10-16T04:45:04;5.13;;;2.20;;
1467;SDS011;727;48.892;9.544;2022-10-16T04:47:32;5.03;;;2.13;;
1467;SDS011;727;48.892;9.544;2022-10-16T04:49:58;15.60;;;3.90;;
1467;SDS011;727;48.892;9.544;2022-10-16T04:52:27;6.77;;;2.77;;
1467;SDS011;727;48.892;9.544;2022-10-16T04:54:54;6.43;;;2.10;;
1467;SDS011;727;48.892;9.544;2022-10-16T04:57:25;3.10;;;2.83;;
1467;SDS011;727;48.892;9.544;2022-10-16T04:59:52;11.27;;;3.00;;
1467;SDS011;727;48.892;9.544;2022-10-16T05:02:20;3.20;;;2.10;;
1467;SDS011;727;48.892;9.544;2022-10-16T05:04:46;1.97;;;1.77;;
1467;SDS011;727;48.892;9.544;2022-10-16T05:07:13;9.30;;;2.53;;
1467;SDS011;727;48.892;9.544;2022-10-16T05:09:40;2.37;;;2.13;;
1467;SDS011;727;48.892;9.544;2022-10-16T05:12:07;4.50;;;2.50;;
1467;SDS011;727;48.892;9.544;2022-10-16T05:14:33;17.87;;;3.00;;
1467;SDS011;727;48.892;9.544;2022-10-16T05:17:00;5.87;;;2.23;;
1467;SDS011;727;48.892;9.544;2022-10-16T05:19:28;12.97;;;4.00;;
1467;SDS011;727;48.892;9.544;2022-10-16T05:21:55;5.47;;;2.73;;
1467;SDS011;727;48.892;9.544;2022-10-16T05:24:22;7.20;;;2.70;;
1467;SDS011;727;48.892;9.544;2022-10-16T05:26:49;5.07;;;3.00;;
1467;SDS011;727;48.892;9.544;2022-10-16T05:29:16;6.67;;;2.23;;
1467;SDS011;727;48.892;9.544;2022-10-16T05:31:43;4.87;;;2.57;;
1467;SDS011;727;48.892;9.544;2022-10-16T05:34:09;2.10;;;2.00;;
1467;SDS011;727;48.892;9.544;2022-10-16T05:36:37;6.93;;;2.50;;
1467;SDS011;727;48.892;9.544;2022-10-16T05:39:04;7.57;;;2.90;;
1467;SDS011;727;48.892;9.544;2022-10-16T05:41:31;4.43;;;2.50;;
1467;SDS011;727;48.892;9.544;2022-10-16T05:43:58;8.33;;;2.73;;
1467;SDS011;727;48.892;9.544;2022-10-16T05:46:24;7.00;;;2.20;;
1467;SDS011;727;48.892;9.544;2022-10-16T05:48:51;6.40;;;2.53;;
1467;SDS011;727;48.892;9.544;2022-10-16T05:51:19;4.57;;;2.83;;
1467;SDS011;727;48.892;9.544;2022-10-16T05:53:47;3.43;;;2.27;;
1467;SDS011;727;48.892;9.544;2022-10-16T05:56:13;7.63;;;3.10;;
1467;SDS011;727;48.892;9.544;2022-10-16T05:58:40;5.83;;;4.13;;
1467;SDS011;727;48.892;9.544;2022-10-16T06:01:09;7.60;;;3.87;;
1467;SDS011;727;48.892;9.544;2022-10-16T06:03:37;6.20;;;4.20;;
1467;SDS011;727;48.892;9.544;2022-10-16T06:06:08;6.50;;;3.77;;
1467;SDS011;727;48.892;9.544;2022-10-16T06:08:35;17.20;;;6.30;;
1467;SDS011;727;48.892;9.544;2022-10-16T06:11:04;17.47;;;5.93;;
1467;SDS011;727;48.892;9.544;2022-10-16T06:13:33;12.13;;;5.17;;
1467;SDS011;727;48.892;9.544;2022-10-16T06:16:00;9.07;;;5.30;;
1467;SDS011;727;48.892;9.544;2022-10-16T06:18:28;6.20;;;4.37;;
1467;SDS011;727;48.892;9.544;2022-10-16T06:20:55;12.87;;;3.20;;
1467;SDS011;727;48.892;9.544;2022-10-16T06:23:23;3.40;;;2.70;;
1467;SDS011;727;48.892;9.544;2022-10-16T06:25:50;10.20;;;3.97;;
1467;SDS011;727;48.892;9.544;2022-10-16T06:28:18;4.93;;;3.10;;
1467;SDS011;727;48.892;9.544;2022-10-16T06:30:45;4.73;;;4.23;;
1467;SDS011;727;48.892;9.544;2022-10-16T06:33:12;8.37;;;5.93;;
1467;SDS011;727;48.892;9.544;2022-10-16T06:35:39;5.70;;;4.67;;
1467;SDS011;727;48.892;9.544;2022-10-16T06:38:05;4.83;;;4.10;;
1467;SDS011;727;48.892;9.544;2022-10-16T06:40:32;13.43;;;5.23;;
1467;SDS011;727;48.892;9.544;2022-10-16T06:42:59;4.10;;;3.70;;
1467;SDS011;727;48.892;9.544;2022-10-16T06:45:27;5.87;;;3.00;;
1467;SDS011;727;48.892;9.544;2022-10-16T06:47:54;3.63;;;3.30;;
1467;SDS011;727;48.892;9.544;2022-10-16T06:50:20;13.70;;;8.07;;
1467;SDS011;727;48.892;9.544;2022-10-16T06:52:47;10.00;;;7.53;;
1467;SDS011;727;48.892;9.544;2022-10-16T06:55:14;10.13;;;5.93;;
1467;SDS011;727;48.892;9.544;2022-10-16T06:57:42;13.43;;;9.47;;
1467;SDS011;727;48.892;9.544;2022-10-16T07:00:09;17.47;;;7.80;;
1467;SDS011;727;48.892;9.544;2022-10-16T07:02:37;10.63;;;9.30;;
1467;SDS011;727;48.892;9.544;2022-10-16T07:05:04;22.93;;;20.77;;
1467;SDS011;727;48.892;9.544;2022-10-16T07:07:31;11.27;;;10.13;;
1467;SDS011;727;48.892;9.544;2022-10-16T07:09:58;18.53;;;10.27;;
1467;SDS011;727;48.892;9.544;2022-10-16T07:12:24;7.60;;;7.10;;
1467;SDS011;727;48.892;9.544;2022-10-16T07:14:51;9.20;;;8.37;;
1467;SDS011;727;48.892;9.544;2022-10-16T07:17:19;13.93;;;11.47;;
1467;SDS011;727;48.892;9.544;2022-10-16T07:19:48;9.43;;;8.60;;
1467;SDS011;727;48.892;9.544;2022-10-16T07:22:17;14.27;;;9.50;;
1467;SDS011;727;48.892;9.544;2022-10-16T07:24:44;10.63;;;8.23;;
1467;SDS011;727;48.892;9.544;2022-10-16T07:27:11;20.70;;;6.20;;
1467;SDS011;727;48.892;9.544;2022-10-16T07:29:37;5.87;;;4.90;;
1467;SDS011;727;48.892;9.544;2022-10-16T07:32:04;5.40;;;4.23;;
1467;SDS011;727;48.892;9.544;2022-10-16T07:34:31;4.20;;;3.90;;
1467;SDS011;727;48.892;9.544;2022-10-16T07:36:59;6.30;;;4.97;;
1467;SDS011;727;48.892;9.544;2022-10-16T07:39:25;5.60;;;3.97;;
1467;SDS011;727;48.892;9.544;2022-10-16T07:41:52;12.73;;;4.40;;
1467;SDS011;727;48.892;9.544;2022-10-16T07:44:19;10.77;;;7.27;;
1467;SDS011;727;48.892;9.544;2022-10-16T07:46:46;7.80;;;4.57;;
1467;SDS011;727;48.892;9.544;2022-10-16T07:49:13;4.57;;;3.20;;
1467;SDS011;727;48.892;9.544;2022-10-16T07:51:39;7.90;;;3.70;;
1467;SDS011;727;48.892;9.544;2022-10-16T07:54:08;12.93;;;4.83;;
1467;SDS011;727;48.892;9.544;2022-10-16T07:56:35;10.40;;;4.03;;
1467;SDS011;727;48.892;9.544;2022-10-16T07:59:02;5.13;;;3.57;;
1467;SDS011;727;48.892;9.544;2022-10-16T08:01:29;4.80;;;3.70;;
1467;SDS011;727;48.892;9.544;2022-10-16T08:03:56;4.00;;;3.27;;
1467;SDS011;727;48.892;9.544;2022-10-16T08:06:22;5.80;;;3.40;;
1467;SDS011;727;48.892;9.544;2022-10-16T08:08:49;4.20;;;3.83;;
1467;SDS011;727;48.892;9.544;2022-10-16T08:11:17;2.83;;;2.63;;
1467;SDS011;727;48.892;9.544;2022-10-16T08:13:44;5.10;;;3.47;;
1467;SDS011;727;48.892;9.544;2022-10-16T08:16:11;4.20;;;3.03;;
1467;SDS011;727;48.892;9.544;2022-10-16T08:18:38;3.90;;;3.60;;
1467;SDS011;727;48.892;9.544;2022-10-16T08:21:05;11.10;;;3.33;;
1467;SDS011;727;48.892;9.544;2022-10-16T08:23:34;7.33;;;4.93;;
1467;SDS011;727;48.892;9.544;2022-10-16T08:26:04;5.00;;;4.50;;
1467;SDS011;727;48.892;9.544;2022-10-16T08:28:33;4.27;;;3.93;;
1467;SDS011;727;48.892;9.544;2022-10-16T08:31:04;6.70;;;4.47;;
1467;SDS011;727;48.892;9.544;2022-10-16T08:33:32;4.90;;;2.90;;
1467;SDS011;727;48.892;9.544;2022-10-16T08:35:59;3.43;;;3.17;;
1467;SDS011;727;48.892;9.544;2022-10-16T08:38:27;3.50;;;2.87;;
1467;SDS011;727;48.892;9.544;2022-10-16T08:40:53;5.43;;;3.10;;
1467;SDS011;727;48.892;9.544;2022-10-16T08:43:39;3.30;;;3.00;;
1467;SDS011;727;48.892;9.544;2022-10-16T08:46:25;3.30;;;2.77;;
1467;SDS011;727;48.892;9.544;2022-10-16T08:49:05;3.20;;;2.80;;
1467;SDS011;727;48.892;9.544;2022-10-16T08:51:37;2.70;;;2.50;;
1467;SDS011;727;48.892;9.544;2022-10-16T08:54:05;3.50;;;3.20;;
1467;SDS011;727;48.892;9.544;2022-10-16T08:56:37;2.67;;;2.47;;
1467;SDS011;727;48.892;9.544;2022-10-16T08:59:06;5.97;;;2.77;;
1467;SDS011;727;48.892;9.544;2022-10-16T09:01:37;2.80;;;2.60;;
1467;SDS011;727;48.892;9.544;2022-10-16T09:04:13;3.80;;;2.83;;
1467;SDS011;727;48.892;9.544;2022-10-16T09:07:11;2.90;;;2.53;;
1467;SDS011;727;48.892;9.544;2022-10-16T09:09:48;4.33;;;1.93;;
1467;SDS011;727;48.892;9.544;2022-10-16T09:12:31;3.93;;;2.70;;
1467;SDS011;727;48.892;9.544;2022-10-16T09:15:10;6.00;;;1.90;;
1467;SDS011;727;48.892;9.544;2022-10-16T09:17:45;5.73;;;3.03;;
1467;SDS011;727;48.892;9.544;2022-10-16T09:23:09;6.93;;;3.33;;
1467;SDS011;727;48.892;9.544;2022-10-16T09:25:42;10.83;;;3.10;;
1467;SDS011;727;48.892;9.544;2022-10-16T09:28:12;3.80;;;3.40;;
1467;SDS011;727;48.892;9.544;2022-10-16T09:30:40;6.63;;;3.40;;
1467;SDS011;727;48.892;9.544;2022-10-16T09:33:07;4.00;;;3.60;;
1467;SDS011;727;48.892;9.544;2022-10-16T09:35:37;4.93;;;3.17;;
1467;SDS011;727;48.892;9.544;2022-10-16T09:38:05;4.60;;;3.20;;
1467;SDS011;727;48.892;9.544;2022-10-16T09:40:33;6.07;;;3.40;;
1467;SDS011;727;48.892;9.544;2022-10-16T09:43:03;7.57;;;3.50;;
1467;SDS011;727;48.892;9.544;2022-10-16T09:45:40;3.67;;;2.83;;
1467;SDS011;727;48.892;9.544;2022-10-16T09:48:11;3.90;;;3.43;;
1467;SDS011;727;48.892;9.544;2022-10-16T09:50:39;4.60;;;3.20;;
1467;SDS011;727;48.892;9.544;2022-10-16T09:53:08;4.70;;;3.20;;
1467;SDS011;727;48.892;9.544;2022-10-16T09:55:47;3.40;;;3.10;;
1467;SDS011;727;48.892;9.544;2022-10-16T09:58:15;7.47;;;3.17;;
1467;SDS011;727;48.892;9.544;2022-10-16T10:00:48;3.60;;;2.73;;
1467;SDS011;727;48.892;9.544;2022-10-16T10:03:20;4.00;;;3.40;;
1467;SDS011;727;48.892;9.544;2022-10-16T10:06:00;3.97;;;3.57;;
1467;SDS011;727;48.892;9.544;2022-10-16T10:08:30;3.70;;;3.40;;
1467;SDS011;727;48.892;9.544;2022-10-16T10:10:57;4.17;;;3.50;;
1467;SDS011;727;48.892;9.544;2022-10-16T10:13:24;9.90;;;4.53;;
1467;SDS011;727;48.892;9.544;2022-10-16T10:15:53;3.57;;;2.33;;
1467;SDS011;727;48.892;9.544;2022-10-16T10:18:21;3.20;;;2.50;;
1467;SDS011;727;48.892;9.544;2022-10-16T10:20:56;5.23;;;2.73;;
1467;SDS011;727;48.892;9.544;2022-10-16T10:23:25;2.37;;;2.20;;
1467;SDS011;727;48.892;9.544;2022-10-16T10:25:53;2.50;;;2.30;;
1467;SDS011;727;48.892;9.544;2022-10-16T10:31:19;3.53;;;2.20;;
1467;SDS011;727;48.892;9.544;2022-10-16T10:33:52;6.07;;;2.17;;
1467;SDS011;727;48.892;9.544;2022-10-16T10:36:29;6.00;;;2.10;;
1467;SDS011;727;48.892;9.544;2022-10-16T10:38:59;2.20;;;2.00;;
1467;SDS011;727;48.892;9.544;2022-10-16T10:41:37;2.37;;;1.80;;
1467;SDS011;727;48.892;9.544;2022-10-16T10:44:15;3.03;;;1.67;;
1467;SDS011;727;48.892;9.544;2022-10-16T10:46:48;4.17;;;2.07;;
1467;SDS011;727;48.892;9.544;2022-10-16T10:49:30;6.20;;;1.70;;
1467;SDS011;727;48.892;9.544;2022-10-16T10:52:07;6.30;;;1.57;;
1467;SDS011;727;48.892;9.544;2022-10-16T10:54:53;2.23;;;1.53;;
1467;SDS011;727;48.892;9.544;2022-10-16T10:57:28;7.03;;;1.60;;
1467;SDS011;727;48.892;9.544;2022-10-16T11:00:00;2.97;;;1.90;;
1467;SDS011;727;48.892;9.544;2022-10-16T11:02:37;4.00;;;3.60;;
1467;SDS011;727;48.892;9.544;2022-10-16T11:05:21;13.60;;;3.83;;
1467;SDS011;727;48.892;9.544;2022-10-16T11:07:55;4.83;;;1.97;;
1467;SDS011;727;48.892;9.544;2022-10-16T11:10:25;2.90;;;1.70;;
1467;SDS011;727;48.892;9.544;2022-10-16T11:12:55;3.97;;;1.20;;
1467;SDS011;727;48.892;9.544;2022-10-16T11:15:27;6.73;;;1.80;;
1467;SDS011;727;48.892;9.544;2022-10-16T11:18:00;3.33;;;2.00;;
1467;SDS011;727;48.892;9.544;2022-10-16T11:20:32;7.60;;;1.67;;
1467;SDS011;727;48.892;9.544;2022-10-16T11:23:05;3.10;;;1.67;;
1467;SDS011;727;48.892;9.544;2022-10-16T11:25:38;2.70;;;1.50;;
1467;SDS011;727;48.892;9.544;2022-10-16T11:28:07;2.33;;;1.30;;
1467;SDS011;727;48.892;9.544;2022-10-16T11:30:39;1.23;;;1.10;;
1467;SDS011;727;48.892;9.544;2022-10-16T11:33:19;1.20;;;1.10;;
1467;SDS011;727;48.892;9.544;2022-10-16T11:35:51;1.23;;;1.17;;
1467;SDS011;727;48.892;9.544;2022-10-16T11:38:23;2.03;;;1.30;;
1467;SDS011;727;48.892;9.544;2022-10-16T11:40:56;4.20;;;1.80;;
1467;SDS011;727;48.892;9.544;2022-10-16T11:43:27;3.57;;;1.60;;
1467;SDS011;727;48.892;9.544;2022-10-16T11:46:01;1.80;;;1.33;;
1467;SDS011;727;48.892;9.544;2022-10-16T11:48:33;5.70;;;1.60;;
1467;SDS011;727;48.892;9.544;2022-10-16T11:51:08;3.27;;;1.30;;
1467;SDS011;727;48.892;9.544;2022-10-16T11:53:42;5.30;;;1.47;;
1467;SDS011;727;48.892;9.544;2022-10-16T11:56:19;11.90;;;6.07;;
1467;SDS011;727;48.892;9.544;2022-10-16T11:58:50;1.70;;;1.23;;
1467;SDS011;727;48.892;9.544;2022-10-16T12:01:24;3.33;;;1.20;;
1467;SDS011;727;48.892;9.544;2022-10-16T12:04:01;5.73;;;2.00;;
1467;SDS011;727;48.892;9.544;2022-10-16T12:06:40;4.60;;;1.60;;
1467;SDS011;727;48.892;9.544;2022-10-16T12:09:11;3.30;;;2.60;;
1467;SDS011;727;48.892;9.544;2022-10-16T12:11:46;5.30;;;1.80;;
1467;SDS011;727;48.892;9.544;2022-10-16T12:17:03;2.03;;;1.83;;
1467;SDS011;727;48.892;9.544;2022-10-16T12:19:57;2.07;;;1.57;;
1467;SDS011;727;48.892;9.544;2022-10-16T12:22:26;2.77;;;1.23;;
1467;SDS011;727;48.892;9.544;2022-10-16T12:24:55;1.70;;;1.30;;
1467;SDS011;727;48.892;9.544;2022-10-16T12:27:23;4.63;;;1.73;;
1467;SDS011;727;48.892;9.544;2022-10-16T12:29:54;2.90;;;1.43;;
1467;SDS011;727;48.892;9.544;2022-10-16T12:32:26;2.60;;;2.40;;
1467;SDS011;727;48.892;9.544;2022-10-16T12:34:57;3.13;;;1.93;;
1467;SDS011;727;48.892;9.544;2022-10-16T12:37:25;4.07;;;1.60;;
1467;SDS011;727;48.892;9.544;2022-10-16T12:39:57;3.30;;;1.67;;
1467;SDS011;727;48.892;9.544;2022-10-16T12:42:32;1.20;;;1.10;;
1467;SDS011;727;48.892;9.544;2022-10-16T12:45:00;1.67;;;1.47;;
1467;SDS011;727;48.892;9.544;2022-10-16T12:47:37;5.53;;;1.77;;
1467;SDS011;727;48.892;9.544;2022-10-16T12:50:26;2.83;;;1.20;;
1467;SDS011;727;48.892;9.544;2022-10-16T12:52:55;3.20;;;1.60;;
1467;SDS011;727;48.892;9.544;2022-10-16T12:55:22;7.57;;;1.70;;
1467;SDS011;727;48.892;9.544;2022-10-16T12:57:57;2.23;;;1.27;;
1467;SDS011;727;48.892;9.544;2022-10-16T13:00:34;0.93;;;0.93;;
1467;SDS011;727;48.892;9.544;2022-10-16T13:06:22;6.43;;;1.40;;
1467;SDS011;727;48.892;9.544;2022-10-16T13:09:02;18.37;;;2.60;;
1467;SDS011;727;48.892;9.544;2022-10-16T13:11:41;2.80;;;1.33;;
1467;SDS011;727;48.892;9.544;2022-10-16T13:14:25;9.27;;;2.20;;
1467;SDS011;727;48.892;9.544;2022-10-16T13:17:05;6.90;;;2.17;;
1467;SDS011;727;48.892;9.544;2022-10-16T13:19:39;2.10;;;1.30;;
1467;SDS011;727;48.892;9.544;2022-10-16T13:22:15;2.50;;;1.57;;
1467;SDS011;727;48.892;9.544;2022-10-16T13:24:53;1.57;;;1.20;;
1467;SDS011;727;48.892;9.544;2022-10-16T13:27:30;5.50;;;1.50;;
1467;SDS011;727;48.892;9.544;2022-10-16T13:30:02;2.40;;;2.20;;
1467;SDS011;727;48.892;9.544;2022-10-16T13:32:38;7.83;;;2.03;;
1467;SDS011;727;48.892;9.544;2022-10-16T13:35:17;7.40;;;1.87;;
1467;SDS011;727;48.892;9.544;2022-10-16T13:37:46;4.40;;;1.57;;
1467;SDS011;727;48.892;9.544;2022-10-16T13:40:17;4.00;;;1.37;;
1467;SDS011;727;48.892;9.544;2022-10-16T13:42:45;2.23;;;1.63;;
1467;SDS011;727;48.892;9.544;2022-10-16T13:45:19;14.13;;;1.80;;
1467;SDS011;727;48.892;9.544;2022-10-16T13:47:46;6.03;;;2.43;;
1467;SDS011;727;48.892;9.544;2022-10-16T13:50:14;4.50;;;1.40;;
1467;SDS011;727;48.892;9.544;2022-10-16T13:52:42;6.90;;;2.47;;
1467;SDS011;727;48.892;9.544;2022-10-16T13:55:11;6.00;;;2.30;;
1467;SDS011;727;48.892;9.544;2022-10-16T13:57:39;7.87;;;1.87;;
1467;SDS011;727;48.892;9.544;2022-10-16T14:00:17;9.53;;;2.57;;
1467;SDS011;727;48.892;9.544;2022-10-16T14:02:45;5.03;;;2.10;;
1467;SDS011;727;48.892;9.544;2022-10-16T14:05:18;7.77;;;2.10;;
1467;SDS011;727;48.892;9.544;2022-10-16T14:07:47;9.03;;;2.73;;
1467;SDS011;727;48.892;9.544;2022-10-16T14:10:22;7.87;;;2.63;;
1467;SDS011;727;48.892;9.544;2022-10-16T14:12:54;2.87;;;1.37;;
1467;SDS011;727;48.892;9.544;2022-10-16T14:15:22;5.07;;;1.80;;
1467;SDS011;727;48.892;9.544;2022-10-16T14:17:50;8.17;;;1.97;;
1467;SDS011;727;48.892;9.544;2022-10-16T14:20:18;3.23;;;2.03;;
1467;SDS011;727;48.892;9.544;2022-10-16T14:22:47;3.10;;;1.70;;
1467;SDS011;727;48.892;9.544;2022-10-16T14:25:27;6.00;;;2.10;;
1467;SDS011;727;48.892;9.544;2022-10-16T14:27:59;6.00;;;2.27;;
1467;SDS011;727;48.892;9.544;2022-10-16T14:30:28;5.70;;;1.73;;
1467;SDS011;727;48.892;9.544;2022-10-16T14:32:56;5.90;;;2.20;;
1467;SDS011;727;48.892;9.544;2022-10-16T14:35:26;6.60;;;2.30;;
1467;SDS011;727;48.892;9.544;2022-10-16T14:37:57;9.70;;;2.13;;
1467;SDS011;727;48.892;9.544;2022-10-16T14:40:28;4.63;;;2.33;;
1467;SDS011;727;48.892;9.544;2022-10-16T14:42:57;4.93;;;2.27;;
1467;SDS011;727;48.892;9.544;2022-10-16T14:45:24;3.53;;;2.00;;
1467;SDS011;727;48.892;9.544;2022-10-16T14:47:54;7.30;;;1.90;;
1467;SDS011;727;48.892;9.544;2022-10-16T14:50:23;4.40;;;2.47;;
1467;SDS011;727;48.892;9.544;2022-10-16T14:52:50;4.17;;;2.13;;
1467;SDS011;727;48.892;9.544;2022-10-16T14:55:17;3.17;;;2.40;;
1467;SDS011;727;48.892;9.544;2022-10-16T14:57:46;7.13;;;3.30;;
1467;SDS011;727;48.892;9.544;2022-10-16T15:00:15;8.93;;;2.63;;
1467;SDS011;727;48.892;9.544;2022-10-16T15:02:45;6.50;;;2.70;;
1467;SDS011;727;48.892;9.544;2022-10-16T15:05:15;10.50;;;2.87;;
1467;SDS011;727;48.892;9.544;2022-10-16T15:07:43;9.33;;;2.43;;
1467;SDS011;727;48.892;9.544;2022-10-16T15:10:11;9.87;;;3.00;;
1467;SDS011;727;48.892;9.544;2022-10-16T15:12:38;22.33;;;3.67;;
1467;SDS011;727;48.892;9.544;2022-10-16T15:17:59;11.17;;;4.17;;
1467;SDS011;727;48.892;9.544;2022-10-16T15:20:28;5.27;;;3.00;;
1467;SDS011;727;48.892;9.544;2022-10-16T15:22:58;6.30;;;3.30;;
1467;SDS011;727;48.892;9.544;2022-10-16T15:25:29;13.87;;;3.70;;
1467;SDS011;727;48.892;9.544;2022-10-16T15:27:59;10.10;;;4.30;;
1467;SDS011;727;48.892;9.544;2022-10-16T15:30:27;26.57;;;9.73;;
1467;SDS011;727;48.892;9.544;2022-10-16T15:32:55;12.20;;;10.00;;
1467;SDS011;727;48.892;9.544;2022-10-16T15:35:22;8.80;;;5.47;;
1467;SDS011;727;48.892;9.544;2022-10-16T15:37:49;14.77;;;3.73;;
1467;SDS011;727;48.892;9.544;2022-10-16T15:40:16;11.70;;;3.73;;
1467;SDS011;727;48.892;9.544;2022-10-16T15:42:43;4.93;;;2.30;;
1467;SDS011;727;48.892;9.544;2022-10-16T15:45:10;10.53;;;3.20;;
1467;SDS011;727;48.892;9.544;2022-10-16T15:47:38;8.57;;;2.30;;
1467;SDS011;727;48.892;9.544;2022-10-16T15:50:08;14.70;;;2.70;;
1467;SDS011;727;48.892;9.544;2022-10-16T15:52:36;8.10;;;3.03;;
1467;SDS011;727;48.892;9.544;2022-10-16T15:55:04;5.20;;;2.27;;
1467;SDS011;727;48.892;9.544;2022-10-16T15:57:31;6.00;;;1.90;;
1467;SDS011;727;48.892;9.544;2022-10-16T15:59:58;4.30;;;2.40;;